Latest Weather Observations for Murganella Airstrip

IDD60801

Issued at 3:31 pm CST Friday 1 July 2016 (issued every 30 minutes, with the page automatically refreshed every 10 minutes)

About weather observations | Map of weather stations | Latest weather observations for NT | Other Formats
Station Details ID: 014309 Name: MURGANELLA AIRSTRIP Lat: -11.55 Lon: 132.93 Height: 9.5 m
Data from the previous 72 hours. | See also: Recent months at Murganella Airstrip
Date/Time
CST
Temp
°C
App
Temp
°C
Dew
Point
°C
Rel
Hum
%
Delta-T
°C
Wind Press
QNH
hPa
Press
MSL
hPa
Rain since
9am
mm
Dir  Spd
km/h
Gust
km/h
Spd
kts
Gust
kts
01/03:30pm 28.9 27.8 17.4 49 7.3 ENE 19 35 10 19 1012.5 1012.5 0.0
01/03:00pm 29.3 28.3 17.5 49 7.5 ENE 19 30 10 16 1012.7 1012.7 0.0
01/02:30pm 29.4 28.1 17.2 47 7.7 E 20 37 11 20 1013.1 1013.1 0.0
01/02:00pm 28.9 27.1 16.1 46 7.9 E 20 37 11 20 1013.3 1013.3 0.0
01/01:30pm 29.4 28.4 16.6 46 8.0 E 17 32 9 17 1013.6 1013.6 0.0
01/01:00pm 29.8 28.5 15.9 43 8.6 ENE 17 33 9 18 1014.1 1014.1 0.0
01/12:30pm 29.1 28.4 16.3 46 8.0 E 15 26 8 14 1014.3 1014.3 0.0
01/12:00pm 28.7 27.4 15.9 45 7.9 E 17 30 9 16 1014.8 1014.8 0.0
01/11:30am 28.1 28.0 17.9 54 6.5 ENE 15 33 8 18 1015.1 1015.1 0.0
01/11:00am 27.6 27.2 18.0 55 6.1 E 17 37 9 20 1015.4 1015.4 0.0
01/10:30am 27.8 28.5 18.8 58 5.8 E 13 22 7 12 1015.6 1015.6 0.0
01/10:00am 27.3 27.7 19.1 61 5.3 E 15 30 8 16 1015.8 1015.8 0.0
01/09:30am 26.8 27.3 19.2 63 4.9 E 15 26 8 14 1016.1 1016.1 0.0
01/09:00am 25.9 26.9 19.5 68 4.1 ESE 13 26 7 14 1016.1 1016.1 0.0
01/08:30am 24.8 27.0 20.3 76 2.9 ESE 9 15 5 8 1016.0 1016.0 0.0
01/08:00am 22.9 25.8 19.9 83 1.9 SE 4 7 2 4 1015.8 1015.8 0.0
01/07:30am 20.9 23.5 19.2 90 1.1 SE 4 6 2 3 1015.6 1015.6 0.0
01/07:00am 20.5 23.1 18.4 88 1.3 SE 2 6 1 3 1015.3 1015.3 0.0
01/06:30am 20.5 22.5 17.9 85 1.6 SSE 4 6 2 3 1015.1 1015.1 0.0
01/06:00am 21.3 23.9 18.3 83 1.9 SE 2 2 1 1 1014.8 1014.8 0.0
01/05:30am 22.1 24.5 18.9 82 2.0 SE 4 6 2 3 1014.6 1014.6 0.0
01/05:00am 22.7 24.8 18.9 79 2.4 SE 6 11 3 6 1014.2 1014.2 0.0
01/04:30am 23.3 25.2 19.0 77 2.7 ESE 7 13 4 7 1014.0 1014.0 0.0
01/04:00am 23.8 25.5 19.3 76 2.9 SE 9 20 5 11 1013.8 1013.8 0.0
01/03:30am 24.2 25.9 19.3 74 3.1 ESE 9 17 5 9 1013.7 1013.7 0.0
01/03:00am 24.7 25.2 19.3 72 3.5 ESE 15 28 8 15 1013.8 1013.8 0.0
01/02:30am 24.8 26.1 19.4 72 3.5 ESE 11 19 6 10 1013.9 1013.9 0.0
01/02:00am 25.3 26.8 19.7 71 3.6 E 11 22 6 12 1013.9 1013.9 0.0
01/01:30am 25.6 27.0 19.5 69 3.9 ESE 11 22 6 12 1014.2 1014.2 0.0
01/01:00am 26.0 28.1 20.1 70 3.8 E 9 17 5 9 1014.3 1014.3 0.0
01/12:30am 26.4 28.2 20.3 69 4.0 E 11 19 6 10 1014.3 1014.3 0.0
01/12:00am 26.3 29.4 21.5 75 3.2 E 7 15 4 8 1014.3 1014.3 0.0
 
Date/Time
CST
Temp
°C
App
Temp
°C
Dew
Point
°C
Rel
Hum
%
Delta-T
°C
Wind Press
QNH
hPa
Press
MSL
hPa
Rain since
9am
mm
Dir  Spd
km/h
Gust
km/h
Spd
kts
Gust
kts
30/11:30pm 25.9 29.8 22.6 82 2.2 ENE 6 9 3 5 1014.3 1014.3 0.0
30/11:00pm 25.4 29.4 22.7 85 1.8 ENE 6 9 3 5 1014.2 1014.2 0.0
30/10:30pm 25.4 29.7 22.7 85 1.8 ENE 4 7 2 4 1014.3 1014.3 0.0
30/10:00pm 25.5 29.8 22.6 84 2.0 E 4 6 2 3 1014.4 1014.4 0.0
30/09:30pm 25.8 30.1 22.7 83 2.1 ENE 4 7 2 4 1014.4 1014.4 0.0
30/09:00pm 25.5 29.7 22.4 83 2.1 ENE 4 7 2 4 1014.2 1014.2 0.0
30/08:30pm 25.3 29.3 22.0 82 2.2 E 4 7 2 4 1014.0 1014.0 0.0
30/08:00pm 25.2 29.3 21.5 80 2.5 ENE 2 4 1 2 1013.6 1013.6 0.0
30/07:30pm 25.6 29.3 21.5 78 2.7 ENE 4 4 2 2 1013.2 1013.2 0.0
30/07:00pm 26.4 30.4 20.5 70 3.9 CALM 0 2 0 1 1012.8 1012.8 0.0
30/06:30pm 27.2 30.9 21.5 71 3.8 NE 4 7 2 4 1012.4 1012.4 0.0
30/06:00pm 28.3 31.5 20.6 63 5.1 E 4 7 2 4 1012.2 1012.1 0.0
30/05:30pm 29.0 31.6 20.4 59 5.7 ENE 7 15 4 8 1012.0 1011.9 0.0
30/05:00pm 29.7 31.1 20.3 57 6.2 ENE 13 20 7 11 1011.7 1011.6 0.0
30/04:30pm 30.7 32.7 20.0 52 7.1 E 9 17 5 9 1011.7 1011.6 0.0
30/04:00pm 31.1 32.4 19.4 49 7.7 ENE 11 20 6 11 1011.7 1011.6 0.0
30/03:30pm 31.6 32.7 19.6 49 7.9 ENE 13 20 7 11 1011.8 1011.7 0.0
30/03:00pm 31.9 33.5 19.9 49 7.9 ENE 11 22 6 12 1012.1 1012.0 0.0
30/02:30pm 32.2 33.9 20.1 48 8.0 ENE 11 28 6 15 1012.4 1012.4 0.0
30/02:00pm 32.1 33.3 20.0 48 8.0 NE 13 24 7 13 1012.7 1012.7 0.0
30/01:30pm 31.9 32.9 19.5 47 8.1 ENE 13 20 7 11 1013.1 1013.1 0.0
30/01:00pm 31.3 31.7 19.9 50 7.5 ESE 17 28 9 15 1013.7 1013.7 0.0
30/12:30pm 31.5 32.0 20.1 50 7.5 E 17 30 9 16 1014.2 1014.2 0.0
30/12:00pm 31.1 31.9 19.8 51 7.4 ESE 15 24 8 13 1014.6 1014.6 0.0
30/11:30am 30.2 30.6 19.9 54 6.8 ESE 17 32 9 17 1014.9 1014.9 0.0
30/11:00am 30.1 31.0 20.1 55 6.6 ESE 15 24 8 13 1015.4 1015.4 0.0
30/10:30am 28.9 29.3 19.8 58 5.9 ESE 17 30 9 16 1015.7 1015.7 0.0
30/10:00am 28.6 30.5 19.8 59 5.7 ESE 9 22 5 12 1016.1 1016.1 0.0
30/09:30am 27.2 28.6 19.5 62 5.0 ESE 11 20 6 11 1016.3 1016.3 0.0
30/09:00am 25.6 26.8 19.0 67 4.2 SE 11 17 6 9 1016.4 1016.4 0.0
30/08:30am 24.4 26.4 18.8 71 3.6 ESE 6 9 3 5 1016.5 1016.5 0.0
30/08:00am 22.4 25.7 19.2 82 2.0 CALM 0 4 0 2 1016.3 1016.3 0.0
30/07:30am 19.6 22.2 18.3 92 0.8 SSE 2 6 1 3 1015.8 1015.8 0.0
30/07:00am 19.1 21.1 17.8 92 0.8 SSE 4 4 2 2 1015.3 1015.3 0.0
30/06:30am 18.7 20.3 17.0 90 1.0 SSE 4 4 2 2 1015.0 1015.0 0.0
30/06:00am 19.0 21.6 17.5 91 0.9 CALM 0 0 0 0 1014.7 1014.7 0.0
30/05:30am 19.3 21.9 17.4 89 1.2 CALM 0 0 0 0 1014.6 1014.6 0.0
30/05:00am 19.8 22.4 18.3 91 0.9 S 2 6 1 3 1014.3 1014.3 0.0
30/04:30am 19.8 22.4 17.6 87 1.3 CALM 0 0 0 0 1014.5 1014.5 0.0
30/04:00am 20.1 22.7 17.5 85 1.6 CALM 0 0 0 0 1014.5 1014.5 0.0
30/03:30am 20.7 23.5 18.8 89 1.2 SE 2 6 1 3 1014.3 1014.3 0.0
30/03:00am 20.6 22.8 18.4 87 1.4 SSE 4 6 2 3 1014.6 1014.6 0.0
30/02:30am 20.9 23.7 18.8 88 1.3 SE 2 4 1 2 1014.8 1014.8 0.0
30/02:00am 21.1 24.1 18.5 85 1.6 CALM 0 0 0 0 1015.0 1015.0 0.0
30/01:30am 21.7 24.8 19.4 87 1.5 SE 2 4 1 2 1015.1 1015.1 0.0
30/01:00am 21.6 24.4 19.7 89 1.2 SE 4 6 2 3 1015.2 1015.2 0.0
30/12:30am 21.4 24.6 18.8 85 1.6 CALM 0 0 0 0 1015.2 1015.2 0.0
30/12:00am 21.8 25.0 18.8 83 1.9 CALM 0 0 0 0 1015.2 1015.2 0.0
 
Date/Time
CST
Temp
°C
App
Temp
°C
Dew
Point
°C
Rel
Hum
%
Delta-T
°C
Wind Press
QNH
hPa
Press
MSL
hPa
Rain since
9am
mm
Dir  Spd
km/h
Gust
km/h
Spd
kts
Gust
kts
29/11:30pm 22.2 25.4 18.8 81 2.1 CALM 0 0 0 0 1015.1 1015.1 0.0
29/11:00pm 22.7 26.2 19.5 82 2.0 CALM 0 0 0 0 1015.2 1015.2 0.0
29/10:30pm 23.4 26.9 19.5 79 2.5 CALM 0 0 0 0 1015.2 1015.2 0.0
29/10:00pm 24.1 27.4 20.0 78 2.6 E 2 4 1 2 1015.3 1015.3 0.0
29/09:30pm 25.1 28.6 20.4 75 3.1 ESE 2 4 1 2 1015.1 1015.1 0.0
29/09:00pm 25.8 29.1 20.8 74 3.3 E 4 6 2 3 1014.9 1014.9 0.0
29/08:30pm 26.0 29.0 20.8 73 3.4 ESE 6 7 3 4 1014.6 1014.6 0.0
29/08:00pm 26.4 29.7 20.7 71 3.7 E 4 6 2 3 1014.2 1014.2 0.0
29/07:30pm 26.5 29.4 20.6 70 3.9 E 6 11 3 6 1013.9 1013.9 0.0
29/07:00pm 26.9 30.0 20.3 67 4.3 E 4 7 2 4 1013.5 1013.5 0.0
29/06:30pm 27.4 29.8 20.0 64 4.8 E 7 13 4 7 1013.1 1013.1 0.0
29/06:00pm 28.2 29.9 19.4 59 5.7 E 9 17 5 9 1012.7 1012.7 0.0
29/05:30pm 29.1 30.8 19.4 55 6.3 ENE 9 19 5 10 1012.4 1012.4 0.0
29/05:00pm 29.5 29.9 18.9 53 6.9 ENE 15 26 8 14 1012.2 1012.1 0.0
29/04:30pm 30.4 31.2 19.1 50 7.4 ENE 13 22 7 12 1012.1 1012.0 0.0
29/04:00pm 30.5 30.7 18.6 49 7.7 E 15 22 8 12 1011.9 1011.8 0.0
29/03:30pm 31.0 31.5 18.4 47 8.1 E 13 26 7 14 1012.0 1011.9 0.0
29/03:00pm 31.6 32.0 18.2 44 8.6 E 13 26 7 14 1012.3 1012.3 0.0
29/02:30pm 31.3 30.8 17.9 44 8.6 ESE 17 28 9 15 1012.6 1012.6 0.0
29/02:00pm 31.6 31.3 18.2 44 8.6 E 17 28 9 15 1012.9 1012.9 0.0
29/01:30pm 31.1 30.6 17.8 45 8.5 ESE 17 30 9 16 1013.3 1013.3 0.0
29/01:00pm 30.9 30.5 17.2 43 8.7 ESE 15 28 8 15 1013.8 1013.8 0.0
29/12:30pm 30.8 30.2 17.5 45 8.5 E 17 30 9 16 1014.4 1014.4 0.0
29/12:00pm 30.7 30.7 18.1 47 8.1 E 15 26 8 14 1014.9 1014.9 0.0
29/11:30am 29.9 29.4 17.7 48 7.8 E 17 32 9 17 1015.3 1015.3 0.0
29/11:00am 29.7 30.1 17.2 47 7.9 ESE 11 24 6 13 1015.6 1015.6 0.0
29/10:30am 28.3 27.4 15.9 47 7.6 SE 15 28 8 15 1015.9 1015.9 0.0
29/10:00am 27.3 26.9 15.3 48 7.3 ESE 11 20 6 11 1016.3 1016.3 0.0
29/09:30am 26.0 26.0 15.1 51 6.6 SE 9 15 5 8 1016.3 1016.3 0.0
29/09:00am 25.5 25.5 15.2 53 6.2 SE 9 19 5 10 1016.2 1016.2 0.0
29/08:30am 24.0 24.1 15.5 59 5.1 ESE 9 17 5 9 1016.1 1016.1 0.0
29/08:00am 21.8 23.6 17.4 76 2.7 SE 4 6 2 3 1015.9 1015.9 0.0
29/07:30am 19.8 21.5 16.3 80 2.1 SSE 2 2 1 1 1015.6 1015.6 0.0
29/07:00am 20.7 21.5 15.9 74 2.9 SSE 6 7 3 4 1015.3 1015.3 0.0
29/06:30am 20.5 21.6 16.5 78 2.4 SE 6 9 3 5 1015.0 1015.0 0.0
29/06:00am 20.8 22.2 17.4 81 2.1 ESE 6 11 3 6 1015.0 1015.0 0.0
29/05:30am 20.1 21.9 17.5 85 1.6 SE 4 6 2 3 1014.8 1014.8 0.0
29/05:00am 20.6 22.4 17.4 82 2.0 SE 4 6 2 3 1014.8 1014.8 0.0
29/04:30am 22.0 24.1 18.2 79 2.4 SSE 4 6 2 3 1014.7 1014.7 0.0
29/04:00am 22.4 24.1 18.6 79 2.4 SE 7 13 4 7 1014.8 1014.8 0.0
29/03:30am 22.7 25.0 18.5 77 2.6 SE 4 7 2 4 1015.0 1015.0 0.0
29/03:00am 22.9 24.7 18.2 75 2.9 SSE 6 9 3 5 1015.0 1015.0 0.0
29/02:30am 23.3 25.1 18.4 74 3.1 SE 6 11 3 6 1015.2 1015.2 0.0
29/02:00am 23.7 25.8 18.1 71 3.5 SE 4 7 2 4 1015.3 1015.3 0.0
29/01:30am 24.3 26.1 18.2 68 3.8 SE 6 11 3 6 1015.3 1015.3 0.0
29/01:00am 25.0 26.2 18.2 66 4.3 SE 9 17 5 9 1015.4 1015.4 0.0
29/12:30am 25.4 26.3 18.3 65 4.5 ESE 11 19 6 10 1015.4 1015.4 0.0
29/12:00am 25.4 27.1 18.6 66 4.3 SE 7 15 4 8 1015.3 1015.3 0.0
 
Date/Time
CST
Temp
°C
App
Temp
°C
Dew
Point
°C
Rel
Hum
%
Delta-T
°C
Wind Press
QNH
hPa
Press
MSL
hPa
Rain since
9am
mm
Dir  Spd
km/h
Gust
km/h
Spd
kts
Gust
kts
28/11:30pm 26.1 27.9 18.8 64 4.7 ESE 7 13 4 7 1015.1 1015.1 0.0
28/11:00pm 26.5 27.9 18.6 62 5.0 ESE 9 17 5 9 1015.0 1015.0 0.0
28/10:30pm 26.7 28.2 18.8 62 5.1 ESE 9 17 5 9 1015.0 1015.0 0.0
28/10:00pm 26.4 28.9 20.3 69 4.0 ESE 7 17 4 9 1014.9 1014.9 0.0
28/09:30pm 25.3 29.4 22.2 83 2.1 ESE 4 13 2 7 1014.6 1014.6 0.0
28/09:00pm 25.4 29.8 22.1 82 2.2 E 2 2 1 1 1014.5 1014.5 0.0
28/08:30pm 25.9 30.1 22.4 81 2.4 E 4 7 2 4 1014.1 1014.1 0.0
28/08:00pm 26.2 30.2 22.1 78 2.7 ESE 4 4 2 2 1013.7 1013.7 0.0
28/07:30pm 26.7 30.8 22.3 77 3.0 ENE 4 9 2 5 1013.3 1013.3 0.0
28/07:00pm 27.1 30.6 21.8 73 3.5 E 6 9 3 5 1013.0 1013.0 0.0
28/06:30pm 27.6 30.7 21.4 69 4.1 E 7 13 4 7 1012.7 1012.7 0.0
28/06:00pm 28.5 31.5 21.3 65 4.8 E 7 15 4 8 1012.4 1012.4 0.0
28/05:30pm 29.4 31.8 20.8 60 5.7 E 9 24 5 13 1012.0 1011.9 0.0
28/05:00pm 29.9 31.9 20.7 57 6.1 E 11 20 6 11 1011.7 1011.6 0.0
28/04:30pm 30.9 32.9 20.8 55 6.7 E 11 24 6 13 1011.5 1011.4 0.0
28/04:00pm 31.3 33.4 20.9 54 7.0 ENE 11 24 6 13 1011.4 1011.3 0.0

Other Formats:

Comma delimited format used in spreadsheet applications
http://www.bom.gov.au/fwo/IDD60801/IDD60801.94109.axf

JavaScript Object Notation format (JSON) in row-major order
http://www.bom.gov.au/fwo/IDD60801/IDD60801.94109.json